createdAt,value
2023-09-06T00:02:38.187Z,34.8
2023-09-06T00:08:32.383Z,34.8
2023-09-06T00:14:24.753Z,34.8
2023-09-06T00:20:16.968Z,34.8
2023-09-06T00:26:10.076Z,34.8
2023-09-06T00:32:02.513Z,34.7
2023-09-06T00:37:54.353Z,34.7
2023-09-06T00:43:47.745Z,34.7
2023-09-06T00:49:39.734Z,34.6
2023-09-06T00:55:30.624Z,34.6
2023-09-06T01:01:23.664Z,34.6
2023-09-06T01:07:16.928Z,34.6
2023-09-06T01:13:07.074Z,34.6
2023-09-06T01:19:00.831Z,34.6
2023-09-06T01:24:52.792Z,34.5
2023-09-06T01:30:45.131Z,34.5
2023-09-06T01:36:38.708Z,34.5
2023-09-06T01:42:30.858Z,34.4
2023-09-06T01:48:22.795Z,34.4
2023-09-06T01:54:14.931Z,34.4
2023-09-06T02:05:29.010Z,34.3
2023-09-06T02:11:21.527Z,34.3
2023-09-06T02:17:13.306Z,34.3
2023-09-06T02:22:50.382Z,34.3
2023-09-06T02:28:42.466Z,34.2
2023-09-06T02:34:35.512Z,34.2
2023-09-06T02:40:26.735Z,34.1
2023-09-06T02:46:19.390Z,34.1
2023-09-06T02:52:12.069Z,34.2
2023-09-06T02:58:04.154Z,34.3
2023-09-06T03:03:57.344Z,34.3
2023-09-06T03:09:49.658Z,34.1
2023-09-06T03:15:42.270Z,34.1
2023-09-06T03:21:34.972Z,34
2023-09-06T03:27:26.842Z,34
2023-09-06T03:33:19.473Z,33.9
2023-09-06T03:39:12.242Z,33.9
2023-09-06T03:45:04.951Z,33.8
2023-09-06T03:56:35.852Z,33.6
2023-09-06T04:02:29.112Z,33.4
2023-09-06T04:08:21.982Z,33.5
2023-09-06T04:14:17.027Z,33.4
2023-09-06T04:20:10.049Z,33.4
2023-09-06T04:26:00.380Z,33.4
2023-09-06T04:31:54.528Z,33.5
2023-09-06T04:37:46.068Z,33.4
2023-09-06T04:43:37.479Z,33.5
2023-09-06T04:49:34.838Z,33.4
2023-09-06T04:55:11.955Z,33.4
2023-09-06T05:01:03.740Z,33.4
2023-09-06T05:06:57.219Z,33.4
2023-09-06T05:12:49.274Z,33.4
2023-09-06T05:18:41.656Z,33.4
2023-09-06T05:24:34.002Z,33.4
2023-09-06T05:30:10.029Z,33.4
2023-09-06T05:35:46.041Z,33.3
2023-09-06T05:41:25.449Z,33.4
2023-09-06T05:47:35.811Z,33.6
2023-09-06T05:53:30.573Z,33.6
2023-09-06T05:59:24.728Z,33.6
2023-09-06T06:05:18.008Z,33.6
2023-09-06T06:11:08.505Z,33.6
2023-09-06T06:17:12.714Z,33.6
2023-09-06T06:23:12.968Z,33.6
2023-09-06T06:29:05.240Z,33.5
2023-09-06T06:35:01.416Z,33.5
2023-09-06T06:40:53.674Z,33.3
2023-09-06T06:46:45.227Z,33.3
2023-09-06T06:52:38.948Z,34.7
2023-09-06T06:58:34.582Z,33.6
2023-09-06T07:04:26.515Z,33.4
2023-09-06T07:10:19.561Z,33.5
2023-09-06T07:16:12.130Z,40
2023-09-06T07:22:08.330Z,39.6
2023-09-06T07:28:00.195Z,42.7
2023-09-06T07:33:52.729Z,42
2023-09-06T07:39:46.089Z,41.6
2023-09-06T07:45:38.893Z,41.8
2023-09-06T07:51:33.553Z,42.1
2023-09-06T07:57:24.896Z,44.3
2023-09-06T08:03:31.642Z,44
2023-09-06T08:09:25.922Z,44.1
2023-09-06T08:15:18.279Z,47.1
2023-09-06T08:20:58.713Z,51.9
2023-09-06T08:27:04.736Z,54.7
2023-09-06T08:32:59.535Z,56.4
2023-09-06T08:38:52.534Z,57.6
2023-09-06T08:44:44.720Z,58.4
2023-09-06T08:50:22.207Z,59
2023-09-06T08:56:01.282Z,60.3
2023-09-06T09:01:56.022Z,56.3
2023-09-06T09:08:04.778Z,54.8
2023-09-06T09:20:08.877Z,46.6
2023-09-06T09:26:01.821Z,46.1
2023-09-06T09:31:56.062Z,45.4
2023-09-06T09:37:49.011Z,45.8
2023-09-06T09:43:54.534Z,45.8
2023-09-06T09:50:05.172Z,45.7
2023-09-06T09:56:08.125Z,45.8
2023-09-06T10:01:44.116Z,45.9
2023-09-06T10:08:04.798Z,45.6
2023-09-06T10:13:57.722Z,44.9
2023-09-06T10:20:08.821Z,44.4
2023-09-06T10:26:00.663Z,44
2023-09-06T10:32:13.596Z,43.8
2023-09-06T10:38:04.956Z,43.7
2023-09-06T10:43:57.330Z,43.7
2023-09-06T10:49:53.134Z,43.5
2023-09-06T10:55:31.322Z,43.6
2023-09-06T11:01:08.360Z,43.6
2023-09-06T11:07:16.474Z,43.4
2023-09-06T11:13:26.568Z,43.1
2023-09-06T11:19:20.052Z,42.5
2023-09-06T11:25:12.631Z,41.9
2023-09-06T11:30:49.713Z,41.4
2023-09-06T11:36:42.838Z,41.3
2023-09-06T11:42:34.693Z,41.9
2023-09-06T11:48:27.280Z,43.7
2023-09-06T11:54:35.407Z,45.5
2023-09-06T12:00:28.585Z,43.8
2023-09-06T12:06:36.809Z,42.7
2023-09-06T12:12:30.730Z,41.9
2023-09-06T12:18:10.900Z,41.2
2023-09-06T12:23:47.722Z,40.7
2023-09-06T12:29:24.412Z,40.7
2023-09-06T12:35:31.104Z,40.8
2023-09-06T12:41:22.670Z,40.8
2023-09-06T12:47:18.071Z,40.6
2023-09-06T12:53:10.080Z,40.6
2023-09-06T12:59:05.666Z,40.8
2023-09-06T13:04:59.113Z,40.6
2023-09-06T13:10:51.697Z,40.1
2023-09-06T13:16:31.565Z,39.6
2023-09-06T13:22:25.410Z,39.3
2023-09-06T13:28:17.498Z,38.8
2023-09-06T13:34:10.626Z,38.2
2023-09-06T13:40:03.426Z,37.3
2023-09-06T13:45:58.695Z,35.9
2023-09-06T13:51:51.081Z,35.1
2023-09-06T13:57:43.515Z,34.4
2023-09-06T14:03:21.691Z,33.9
2023-09-06T14:09:13.734Z,33.6
2023-09-06T14:15:06.188Z,33.3
2023-09-06T14:20:43.323Z,33.1
2023-09-06T14:26:35.378Z,32.9
2023-09-06T14:32:29.771Z,32.7
2023-09-06T14:38:21.742Z,32.6
2023-09-06T14:43:58.499Z,32.4
2023-09-06T14:49:51.992Z,32.4
2023-09-06T14:55:43.170Z,32.3
2023-09-06T15:01:26.315Z,32.5
2023-09-06T15:07:41.544Z,32.5
2023-09-06T15:13:33.533Z,32.6
2023-09-06T15:19:09.924Z,32.6
2023-09-06T15:25:14.030Z,32.6
2023-09-06T15:31:05.627Z,32.7
2023-09-06T15:36:57.041Z,32.7
2023-09-06T15:42:48.568Z,32.7
2023-09-06T15:48:40.485Z,32.8
2023-09-06T15:54:32.781Z,32.8
2023-09-06T16:00:40.536Z,32.8
2023-09-06T16:06:36.482Z,32.8
2023-09-06T16:12:29.171Z,32.8
2023-09-06T16:18:25.106Z,32.9
2023-09-06T16:24:19.085Z,32.9
2023-09-06T16:30:11.252Z,32.9
2023-09-06T16:36:06.793Z,32.9
2023-09-06T16:41:58.318Z,32.8
2023-09-06T16:47:51.365Z,32.8
2023-09-06T16:53:44.611Z,32.7
2023-09-06T16:59:36.820Z,32.7
2023-09-06T17:05:29.520Z,32.6
2023-09-06T17:11:21.512Z,32.6
2023-09-06T17:17:13.326Z,32.6
2023-09-06T17:23:06.722Z,32.6
2023-09-06T17:29:08.679Z,32.5
2023-09-06T17:35:00.638Z,32.5
2023-09-06T17:40:35.859Z,32.5
2023-09-06T17:46:28.096Z,32.4
2023-09-06T17:52:22.375Z,32.4
2023-09-06T17:58:13.344Z,32.4
2023-09-06T18:04:10.466Z,32.4
2023-09-06T18:10:04.592Z,32.4
2023-09-06T18:15:56.135Z,32.4
2023-09-06T18:21:48.597Z,32.4
2023-09-06T18:27:56.081Z,32.3
2023-09-06T18:33:33.957Z,32.3
2023-09-06T18:39:10.126Z,32.3
2023-09-06T18:45:02.268Z,32.3
2023-09-06T18:50:40.160Z,32.3
2023-09-06T18:56:32.630Z,32.3
2023-09-06T19:02:38.288Z,32.3
2023-09-06T19:08:30.497Z,32.3
2023-09-06T19:14:22.879Z,32.3
2023-09-06T19:20:16.930Z,32.3
2023-09-06T19:26:08.643Z,32.2
2023-09-06T19:32:03.291Z,32.2
2023-09-06T19:37:57.248Z,32.2
2023-09-06T19:43:49.003Z,32.2
2023-09-06T19:49:43.765Z,32.2
2023-09-06T19:55:35.503Z,32.1
2023-09-06T20:01:26.483Z,32.1
2023-09-06T20:07:22.189Z,32
2023-09-06T20:18:37.037Z,31.9
2023-09-06T20:24:28.888Z,31.9
2023-09-06T20:30:20.363Z,31.9
2023-09-06T20:36:12.411Z,31.9
2023-09-06T20:42:05.069Z,31.9
2023-09-06T20:47:56.871Z,31.9
2023-09-06T20:53:48.842Z,31.9
2023-09-06T20:59:40.586Z,31.9
2023-09-06T21:05:21.171Z,31.9
2023-09-06T21:10:56.179Z,31.9
2023-09-06T21:16:33.467Z,31.8
2023-09-06T21:22:27.096Z,31.8
2023-09-06T21:28:18.112Z,31.8
2023-09-06T21:34:21.388Z,31.8
2023-09-06T21:40:12.662Z,31.8
2023-09-06T21:46:18.216Z,31.8
2023-09-06T21:52:11.581Z,31.7
2023-09-06T21:58:19.215Z,31.7
2023-09-06T22:04:11.434Z,31.6
2023-09-06T22:10:04.074Z,31.6
2023-09-06T22:15:55.744Z,31.6
2023-09-06T22:21:47.279Z,31.6
2023-09-06T22:27:39.637Z,31.6
2023-09-06T22:33:32.677Z,31.6
2023-09-06T22:39:23.941Z,31.6
2023-09-06T22:45:01.900Z,31.6
2023-09-06T22:51:08.225Z,31.6
2023-09-06T22:57:00.499Z,31.6
2023-09-06T23:02:54.208Z,31.6
2023-09-06T23:08:49.583Z,31.5
2023-09-06T23:14:25.692Z,31.5
2023-09-06T23:20:03.402Z,31.5
2023-09-06T23:31:32.679Z,31.5
2023-09-06T23:37:26.033Z,31.4
2023-09-06T23:43:03.189Z,31.4
2023-09-06T23:48:39.974Z,31.4
2023-09-06T23:54:17.037Z,31.4
